Avilla, MO

12:50 PM CDT on September 22, 2014 (GMT -0500)
Springfield-Branson Regional | Change Station
CLOSE
Current Station
Airport
Location: Springfield,
Elevation: 1280 ft
Nearby Weather Stations

Elev 1280 ft 37.24 °N, 93.39 °W | Updated 58 minutes ago

Clear
Clear
68 °F
Feels Like 68 °F
N
0
Wind Variable Wind from North

Today
High -- | Low -- °F
--% Chance of Precip.
Yesterday
High -- | Low -- °F
Precip. -- in
7:04 AM 7:13 PM
Waning Crescent, 2% visible
Pressure 30.29 in
Visibility 10.0 miles
Clouds Clear
Dew Point 50 °F
Humidity 52%
Rainfall 0.00 in
Snow Depth Not available.
UV 7 out of 12
Pollen 5.70 out of 12
Air Quality Not available.
Flu Activity Not available.
METAR KSGF 221652Z 00000KT 10SM CLR 20/10 A3030 RMK AO2 SLP256 T02000100

More Conditions Fewer Conditions

Pressure 30.29 in
Visibility 10.0 miles
Clouds Clear
Dew Point 50 °F
Humidity 52%
Rainfall 0.00 in
Snow Depth Not available.
UV 7 out of 12
Pollen 5.70 out of 12
Air Quality Not available.
Flu Activity Not available.
METAR KSGF 221652Z 00000KT 10SM CLR 20/10 A3030 RMK AO2 SLP256 T02000100

More Conditions Fewer Conditions

10-Day Weather Forecast

Almanac

Astronomy

Sep. 22, 2014 Rise Set
Actual Time 7:04 AM CDT 7:13 PM CDT
Civil Twilight 6:38 AM CDT 7:39 PM CDT
Nautical Twilight 6:07 AM CDT 8:09 PM CDT
Astronomical Twilight 5:37 AM CDT 8:40 PM CDT
Moon 5:35 AM CDT 6:20 PM CDT
Length of Visible Light 13h 00m
Length of Day
12h 09m
Tomorrow will be 2m 22s shorter.
Waning Crescent, 2% of the Moon is Illuminated
Today
Waning Crescent
Sep 24
New
Oct 1
First Quarter
Oct 8
Full
Oct 15
Last Quarter

Today's Extremes

State Highs State Lows

Community

WunderPhotos

Upload Photos

1,755,494 photos uploaded!

WunderBlogs® & News

Nearby

Snow Depth

Station Depth Elevation
No new snow has been reported.

Earthquake Activity

City Distance Mag. Time & Date
No recent earthquake activity has been reported nearby.
Minimum magnitude displayed is 2.5.

Coastal Water Temperatures

Place Temperature
No Stations Reporting

Nearby Weather Stations